sensor_id;sensor_type;location;lat;lon;timestamp;P1;durP1;ratioP1;P2;durP2;ratioP2
40659;SDS011;26753;45.544;9.232;2022-09-25T21:33:35;20.08;;;14.88;;
40659;SDS011;26753;45.544;9.232;2022-09-25T21:36:01;19.90;;;15.75;;
40659;SDS011;26753;45.544;9.232;2022-09-25T21:38:28;17.48;;;15.52;;
40659;SDS011;26753;45.544;9.232;2022-09-25T21:40:57;18.73;;;15.52;;
40659;SDS011;26753;45.544;9.232;2022-09-25T21:43:26;18.63;;;15.38;;
40659;SDS011;26753;45.544;9.232;2022-09-25T21:46:05;18.58;;;15.80;;
40659;SDS011;26753;45.544;9.232;2022-09-25T21:48:32;18.63;;;15.68;;
40659;SDS011;26753;45.544;9.232;2022-09-25T21:51:02;29.05;;;21.05;;
40659;SDS011;26753;45.544;9.232;2022-09-25T21:53:29;31.52;;;22.05;;
40659;SDS011;26753;45.544;9.232;2022-09-25T21:56:15;17.45;;;14.40;;
40659;SDS011;26753;45.544;9.232;2022-09-25T21:58:43;16.65;;;14.00;;
40659;SDS011;26753;45.544;9.232;2022-09-25T22:01:11;17.23;;;13.63;;
40659;SDS011;26753;45.544;9.232;2022-09-25T22:03:39;16.17;;;13.20;;
40659;SDS011;26753;45.544;9.232;2022-09-25T22:06:11;16.02;;;13.27;;
40659;SDS011;26753;45.544;9.232;2022-09-25T22:08:42;15.98;;;13.18;;
40659;SDS011;26753;45.544;9.232;2022-09-25T22:11:10;17.40;;;13.35;;
40659;SDS011;26753;45.544;9.232;2022-09-25T22:13:37;16.40;;;13.07;;
40659;SDS011;26753;45.544;9.232;2022-09-25T22:16:05;16.23;;;12.57;;
40659;SDS011;26753;45.544;9.232;2022-09-25T22:18:38;15.13;;;12.20;;
40659;SDS011;26753;45.544;9.232;2022-09-25T22:21:07;14.45;;;11.98;;
40659;SDS011;26753;45.544;9.232;2022-09-25T22:23:34;14.68;;;11.63;;
40659;SDS011;26753;45.544;9.232;2022-09-25T22:26:00;13.52;;;11.60;;
40659;SDS011;26753;45.544;9.232;2022-09-25T22:28:26;14.18;;;11.57;;
40659;SDS011;26753;45.544;9.232;2022-09-25T22:30:52;13.95;;;11.75;;
40659;SDS011;26753;45.544;9.232;2022-09-25T22:33:17;15.57;;;11.75;;
40659;SDS011;26753;45.544;9.232;2022-09-25T22:35:43;13.50;;;11.20;;
40659;SDS011;26753;45.544;9.232;2022-09-25T22:38:09;13.10;;;10.70;;
40659;SDS011;26753;45.544;9.232;2022-09-25T22:40:35;15.43;;;11.65;;
40659;SDS011;26753;45.544;9.232;2022-09-25T22:43:02;14.63;;;11.90;;
40659;SDS011;26753;45.544;9.232;2022-09-25T22:45:28;14.68;;;11.68;;
40659;SDS011;26753;45.544;9.232;2022-09-25T22:47:54;14.40;;;10.70;;
40659;SDS011;26753;45.544;9.232;2022-09-25T22:50:21;14.60;;;11.75;;
40659;SDS011;26753;45.544;9.232;2022-09-25T22:52:47;15.40;;;10.90;;
40659;SDS011;26753;45.544;9.232;2022-09-25T22:55:14;14.50;;;11.80;;
40659;SDS011;26753;45.544;9.232;2022-09-25T22:57:39;15.30;;;12.85;;
40659;SDS011;26753;45.544;9.232;2022-09-25T23:00:06;14.35;;;12.27;;
40659;SDS011;26753;45.544;9.232;2022-09-25T23:02:33;15.88;;;12.15;;
40659;SDS011;26753;45.544;9.232;2022-09-25T23:04:59;13.48;;;11.48;;
40659;SDS011;26753;45.544;9.232;2022-09-25T23:07:24;14.57;;;11.45;;
40659;SDS011;26753;45.544;9.232;2022-09-25T23:09:50;13.15;;;11.30;;
40659;SDS011;26753;45.544;9.232;2022-09-25T23:12:16;14.98;;;11.63;;
40659;SDS011;26753;45.544;9.232;2022-09-25T23:14:42;16.00;;;12.13;;
40659;SDS011;26753;45.544;9.232;2022-09-25T23:17:08;15.43;;;11.88;;
40659;SDS011;26753;45.544;9.232;2022-09-25T23:19:34;14.35;;;11.43;;
40659;SDS011;26753;45.544;9.232;2022-09-25T23:22:03;17.42;;;12.30;;
40659;SDS011;26753;45.544;9.232;2022-09-25T23:24:29;15.73;;;12.57;;
40659;SDS011;26753;45.544;9.232;2022-09-25T23:26:58;17.15;;;13.25;;
40659;SDS011;26753;45.544;9.232;2022-09-25T23:29:30;16.08;;;12.98;;
40659;SDS011;26753;45.544;9.232;2022-09-25T23:31:58;16.38;;;12.65;;
40659;SDS011;26753;45.544;9.232;2022-09-25T23:34:27;16.73;;;13.18;;
40659;SDS011;26753;45.544;9.232;2022-09-25T23:36:53;16.33;;;12.52;;
40659;SDS011;26753;45.544;9.232;2022-09-25T23:39:19;18.55;;;14.60;;
40659;SDS011;26753;45.544;9.232;2022-09-25T23:41:45;15.10;;;12.18;;
40659;SDS011;26753;45.544;9.232;2022-09-25T23:44:11;15.02;;;12.35;;
40659;SDS011;26753;45.544;9.232;2022-09-25T23:46:38;15.93;;;12.73;;
40659;SDS011;26753;45.544;9.232;2022-09-25T23:49:05;18.40;;;13.38;;
40659;SDS011;26753;45.544;9.232;2022-09-25T23:51:31;16.48;;;12.13;;
40659;SDS011;26753;45.544;9.232;2022-09-25T23:53:58;14.95;;;12.02;;
40659;SDS011;26753;45.544;9.232;2022-09-25T23:56:25;15.75;;;12.70;;
40659;SDS011;26753;45.544;9.232;2022-09-25T23:58:57;14.45;;;12.40;;
